sensor_id;sensor_type;location;lat;lon;timestamp;P1;durP1;ratioP1;P2;durP2;ratioP2
72584;SDS011;60618;40.084;32.908;2023-02-15T00:01:19;22.08;;;8.98;;
72584;SDS011;60618;40.084;32.908;2023-02-15T00:03:50;23.45;;;9.35;;
72584;SDS011;60618;40.084;32.908;2023-02-15T00:06:18;28.58;;;9.68;;
72584;SDS011;60618;40.084;32.908;2023-02-15T00:08:49;27.00;;;10.60;;
72584;SDS011;60618;40.084;32.908;2023-02-15T00:11:23;27.55;;;9.82;;
72584;SDS011;60618;40.084;32.908;2023-02-15T00:13:50;26.30;;;10.10;;
72584;SDS011;60618;40.084;32.908;2023-02-15T00:16:17;26.05;;;9.73;;
72584;SDS011;60618;40.084;32.908;2023-02-15T00:18:44;27.48;;;10.25;;
72584;SDS011;60618;40.084;32.908;2023-02-15T00:21:11;25.90;;;10.20;;
72584;SDS011;60618;40.084;32.908;2023-02-15T00:23:38;22.77;;;9.68;;
72584;SDS011;60618;40.084;32.908;2023-02-15T00:26:09;23.83;;;9.32;;
72584;SDS011;60618;40.084;32.908;2023-02-15T00:28:37;22.95;;;9.75;;
72584;SDS011;60618;40.084;32.908;2023-02-15T00:31:08;25.70;;;9.88;;
72584;SDS011;60618;40.084;32.908;2023-02-15T00:33:37;24.73;;;10.10;;
72584;SDS011;60618;40.084;32.908;2023-02-15T00:36:06;25.85;;;10.60;;
72584;SDS011;60618;40.084;32.908;2023-02-15T00:38:34;30.50;;;11.77;;
72584;SDS011;60618;40.084;32.908;2023-02-15T00:41:02;27.83;;;11.68;;
72584;SDS011;60618;40.084;32.908;2023-02-15T00:43:31;28.63;;;10.95;;
72584;SDS011;60618;40.084;32.908;2023-02-15T00:46:03;26.35;;;11.43;;
72584;SDS011;60618;40.084;32.908;2023-02-15T00:48:31;30.02;;;11.45;;
72584;SDS011;60618;40.084;32.908;2023-02-15T00:50:59;31.13;;;11.55;;
72584;SDS011;60618;40.084;32.908;2023-02-15T00:53:27;29.88;;;12.15;;
72584;SDS011;60618;40.084;32.908;2023-02-15T00:55:54;32.47;;;12.63;;
72584;SDS011;60618;40.084;32.908;2023-02-15T00:58:22;31.55;;;12.90;;
72584;SDS011;60618;40.084;32.908;2023-02-15T01:00:49;33.88;;;12.85;;
72584;SDS011;60618;40.084;32.908;2023-02-15T01:03:17;30.23;;;12.35;;
72584;SDS011;60618;40.084;32.908;2023-02-15T01:05:46;30.58;;;12.23;;
72584;SDS011;60618;40.084;32.908;2023-02-15T01:08:15;30.65;;;12.50;;
72584;SDS011;60618;40.084;32.908;2023-02-15T01:10:42;28.65;;;12.00;;
72584;SDS011;60618;40.084;32.908;2023-02-15T01:13:09;30.50;;;12.70;;
72584;SDS011;60618;40.084;32.908;2023-02-15T01:15:36;30.42;;;11.57;;
72584;SDS011;60618;40.084;32.908;2023-02-15T01:18:03;30.63;;;12.27;;
72584;SDS011;60618;40.084;32.908;2023-02-15T01:20:33;31.23;;;12.23;;
72584;SDS011;60618;40.084;32.908;2023-02-15T01:23:02;31.50;;;12.18;;
72584;SDS011;60618;40.084;32.908;2023-02-15T01:25:29;30.92;;;12.57;;
72584;SDS011;60618;40.084;32.908;2023-02-15T01:27:56;29.95;;;12.77;;
72584;SDS011;60618;40.084;32.908;2023-02-15T01:30:23;32.63;;;12.55;;
72584;SDS011;60618;40.084;32.908;2023-02-15T01:32:50;34.15;;;13.15;;
72584;SDS011;60618;40.084;32.908;2023-02-15T01:35:17;34.30;;;13.25;;
72584;SDS011;60618;40.084;32.908;2023-02-15T01:37:43;30.33;;;12.48;;
72584;SDS011;60618;40.084;32.908;2023-02-15T01:40:14;31.30;;;12.35;;
72584;SDS011;60618;40.084;32.908;2023-02-15T01:42:42;32.03;;;12.52;;
72584;SDS011;60618;40.084;32.908;2023-02-15T01:47:50;30.55;;;12.50;;
72584;SDS011;60618;40.084;32.908;2023-02-15T01:53:16;31.27;;;12.25;;
72584;SDS011;60618;40.084;32.908;2023-02-15T01:55:59;34.40;;;12.73;;
72584;SDS011;60618;40.084;32.908;2023-02-15T01:58:31;34.45;;;13.35;;
72584;SDS011;60618;40.084;32.908;2023-02-15T02:01:00;32.90;;;13.60;;
72584;SDS011;60618;40.084;32.908;2023-02-15T02:03:35;36.85;;;14.27;;
72584;SDS011;60618;40.084;32.908;2023-02-15T02:06:11;37.72;;;13.75;;
72584;SDS011;60618;40.084;32.908;2023-02-15T02:08:39;33.20;;;12.73;;
72584;SDS011;60618;40.084;32.908;2023-02-15T02:11:10;36.88;;;14.43;;
72584;SDS011;60618;40.084;32.908;2023-02-15T02:13:39;32.28;;;12.93;;
72584;SDS011;60618;40.084;32.908;2023-02-15T02:16:09;36.90;;;13.60;;
72584;SDS011;60618;40.084;32.908;2023-02-15T02:25:11;35.47;;;12.63;;
72584;SDS011;60618;40.084;32.908;2023-02-15T02:27:56;32.28;;;11.98;;
72584;SDS011;60618;40.084;32.908;2023-02-15T02:33:24;27.75;;;9.52;;
72584;SDS011;60618;40.084;32.908;2023-02-15T02:44:16;18.83;;;6.78;;
72584;SDS011;60618;40.084;32.908;2023-02-15T02:46:57;18.65;;;7.47;;
72584;SDS011;60618;40.084;32.908;2023-02-15T02:49:35;17.85;;;7.30;;
72584;SDS011;60618;40.084;32.908;2023-02-15T02:52:06;18.73;;;7.32;;
72584;SDS011;60618;40.084;32.908;2023-02-15T02:55:01;18.25;;;7.25;;
72584;SDS011;60618;40.084;32.908;2023-02-15T02:57:35;20.52;;;8.30;;
72584;SDS011;60618;40.084;32.908;2023-02-15T03:00:05;18.88;;;8.57;;
72584;SDS011;60618;40.084;32.908;2023-02-15T03:02:34;20.13;;;7.85;;
72584;SDS011;60618;40.084;32.908;2023-02-15T03:05:09;17.52;;;7.65;;
72584;SDS011;60618;40.084;32.908;2023-02-15T03:07:41;17.88;;;7.68;;
72584;SDS011;60618;40.084;32.908;2023-02-15T03:10:09;19.02;;;8.18;;
72584;SDS011;60618;40.084;32.908;2023-02-15T03:12:40;19.98;;;8.35;;
72584;SDS011;60618;40.084;32.908;2023-02-15T03:15:09;22.88;;;8.38;;
72584;SDS011;60618;40.084;32.908;2023-02-15T03:17:42;22.40;;;9.13;;
72584;SDS011;60618;40.084;32.908;2023-02-15T03:20:31;20.75;;;8.40;;
72584;SDS011;60618;40.084;32.908;2023-02-15T03:23:04;19.75;;;8.38;;
72584;SDS011;60618;40.084;32.908;2023-02-15T03:25:38;19.63;;;8.85;;
72584;SDS011;60618;40.084;32.908;2023-02-15T03:28:09;21.13;;;9.05;;
72584;SDS011;60618;40.084;32.908;2023-02-15T03:30:42;21.55;;;9.15;;
72584;SDS011;60618;40.084;32.908;2023-02-15T03:33:13;23.35;;;8.57;;
72584;SDS011;60618;40.084;32.908;2023-02-15T03:36:01;19.30;;;7.78;;
72584;SDS011;60618;40.084;32.908;2023-02-15T03:41:58;21.92;;;7.43;;
72584;SDS011;60618;40.084;32.908;2023-02-15T03:45:23;20.85;;;7.97;;
72584;SDS011;60618;40.084;32.908;2023-02-15T03:47:46;19.52;;;7.50;;
72584;SDS011;60618;40.084;32.908;2023-02-15T03:50:20;18.15;;;7.30;;
72584;SDS011;60618;40.084;32.908;2023-02-15T03:52:52;18.67;;;6.95;;
72584;SDS011;60618;40.084;32.908;2023-02-15T03:55:21;16.88;;;7.20;;
72584;SDS011;60618;40.084;32.908;2023-02-15T03:57:48;16.30;;;7.05;;
72584;SDS011;60618;40.084;32.908;2023-02-15T04:00:21;15.93;;;6.63;;
72584;SDS011;60618;40.084;32.908;2023-02-15T04:03:10;17.55;;;7.00;;
72584;SDS011;60618;40.084;32.908;2023-02-15T04:05:42;18.75;;;7.30;;
72584;SDS011;60618;40.084;32.908;2023-02-15T04:08:10;17.63;;;7.75;;
72584;SDS011;60618;40.084;32.908;2023-02-15T04:10:38;19.52;;;7.70;;
72584;SDS011;60618;40.084;32.908;2023-02-15T04:13:05;19.45;;;7.60;;
72584;SDS011;60618;40.084;32.908;2023-02-15T04:15:32;20.98;;;8.43;;
72584;SDS011;60618;40.084;32.908;2023-02-15T04:18:01;20.42;;;8.75;;
72584;SDS011;60618;40.084;32.908;2023-02-15T04:20:29;23.30;;;9.02;;
72584;SDS011;60618;40.084;32.908;2023-02-15T04:22:56;20.08;;;7.88;;
72584;SDS011;60618;40.084;32.908;2023-02-15T04:25:23;22.75;;;8.77;;
72584;SDS011;60618;40.084;32.908;2023-02-15T04:27:51;18.45;;;7.90;;
72584;SDS011;60618;40.084;32.908;2023-02-15T04:30:20;18.85;;;8.13;;
72584;SDS011;60618;40.084;32.908;2023-02-15T04:32:49;20.95;;;8.38;;
72584;SDS011;60618;40.084;32.908;2023-02-15T04:35:16;23.00;;;9.00;;
72584;SDS011;60618;40.084;32.908;2023-02-15T04:37:43;25.05;;;9.63;;
72584;SDS011;60618;40.084;32.908;2023-02-15T04:40:13;21.50;;;8.98;;
72584;SDS011;60618;40.084;32.908;2023-02-15T04:42:45;22.85;;;8.20;;
72584;SDS011;60618;40.084;32.908;2023-02-15T04:45:14;20.63;;;8.45;;
72584;SDS011;60618;40.084;32.908;2023-02-15T04:47:41;22.00;;;8.48;;
72584;SDS011;60618;40.084;32.908;2023-02-15T04:50:08;20.20;;;8.10;;
72584;SDS011;60618;40.084;32.908;2023-02-15T04:52:35;22.02;;;7.82;;
72584;SDS011;60618;40.084;32.908;2023-02-15T04:55:02;17.88;;;7.90;;
72584;SDS011;60618;40.084;32.908;2023-02-15T04:57:29;18.20;;;7.60;;
72584;SDS011;60618;40.084;32.908;2023-02-15T04:59:56;20.42;;;7.97;;
72584;SDS011;60618;40.084;32.908;2023-02-15T05:02:23;24.65;;;8.07;;
72584;SDS011;60618;40.084;32.908;2023-02-15T05:04:50;18.75;;;7.63;;
72584;SDS011;60618;40.084;32.908;2023-02-15T05:07:17;22.17;;;8.25;;
72584;SDS011;60618;40.084;32.908;2023-02-15T05:09:43;17.98;;;7.22;;
72584;SDS011;60618;40.084;32.908;2023-02-15T05:12:10;17.23;;;7.40;;
72584;SDS011;60618;40.084;32.908;2023-02-15T05:14:37;18.42;;;7.38;;
72584;SDS011;60618;40.084;32.908;2023-02-15T05:17:04;14.27;;;6.18;;
72584;SDS011;60618;40.084;32.908;2023-02-15T05:19:31;15.82;;;5.68;;
72584;SDS011;60618;40.084;32.908;2023-02-15T05:21:58;13.93;;;5.35;;
72584;SDS011;60618;40.084;32.908;2023-02-15T05:24:25;13.48;;;5.50;;
72584;SDS011;60618;40.084;32.908;2023-02-15T05:26:51;13.27;;;5.25;;
72584;SDS011;60618;40.084;32.908;2023-02-15T05:29:18;14.20;;;5.35;;
72584;SDS011;60618;40.084;32.908;2023-02-15T05:31:45;13.43;;;5.70;;
72584;SDS011;60618;40.084;32.908;2023-02-15T05:34:12;15.77;;;6.28;;
72584;SDS011;60618;40.084;32.908;2023-02-15T05:36:39;13.57;;;5.95;;
72584;SDS011;60618;40.084;32.908;2023-02-15T05:39:06;14.52;;;6.43;;
72584;SDS011;60618;40.084;32.908;2023-02-15T05:41:33;13.80;;;5.47;;
72584;SDS011;60618;40.084;32.908;2023-02-15T05:44:00;14.40;;;6.47;;
72584;SDS011;60618;40.084;32.908;2023-02-15T05:46:27;15.10;;;6.18;;
72584;SDS011;60618;40.084;32.908;2023-02-15T05:48:54;14.35;;;5.65;;
72584;SDS011;60618;40.084;32.908;2023-02-15T05:51:20;13.32;;;5.75;;
72584;SDS011;60618;40.084;32.908;2023-02-15T05:53:47;12.65;;;6.18;;
72584;SDS011;60618;40.084;32.908;2023-02-15T05:56:14;14.80;;;6.15;;
72584;SDS011;60618;40.084;32.908;2023-02-15T05:58:41;15.27;;;6.53;;
72584;SDS011;60618;40.084;32.908;2023-02-15T06:01:12;17.25;;;7.57;;
72584;SDS011;60618;40.084;32.908;2023-02-15T06:03:41;20.67;;;8.00;;
72584;SDS011;60618;40.084;32.908;2023-02-15T06:06:08;18.38;;;7.85;;
72584;SDS011;60618;40.084;32.908;2023-02-15T06:08:36;17.58;;;6.75;;
72584;SDS011;60618;40.084;32.908;2023-02-15T06:11:04;15.75;;;6.70;;
72584;SDS011;60618;40.084;32.908;2023-02-15T06:13:31;18.30;;;6.82;;
72584;SDS011;60618;40.084;32.908;2023-02-15T06:16:03;17.67;;;7.35;;
72584;SDS011;60618;40.084;32.908;2023-02-15T06:18:31;16.60;;;7.20;;
72584;SDS011;60618;40.084;32.908;2023-02-15T06:20:58;17.23;;;7.05;;
72584;SDS011;60618;40.084;32.908;2023-02-15T06:23:25;18.00;;;6.88;;
72584;SDS011;60618;40.084;32.908;2023-02-15T06:25:55;16.95;;;6.60;;
72584;SDS011;60618;40.084;32.908;2023-02-15T06:28:22;17.30;;;7.13;;
72584;SDS011;60618;40.084;32.908;2023-02-15T06:30:49;16.00;;;6.78;;
72584;SDS011;60618;40.084;32.908;2023-02-15T06:33:16;15.77;;;6.65;;
72584;SDS011;60618;40.084;32.908;2023-02-15T06:35:43;14.95;;;6.13;;
72584;SDS011;60618;40.084;32.908;2023-02-15T06:38:11;16.70;;;6.68;;
72584;SDS011;60618;40.084;32.908;2023-02-15T06:40:38;17.00;;;7.30;;
72584;SDS011;60618;40.084;32.908;2023-02-15T06:43:05;15.48;;;6.88;;
72584;SDS011;60618;40.084;32.908;2023-02-15T06:45:33;15.55;;;6.30;;
72584;SDS011;60618;40.084;32.908;2023-02-15T06:48:00;14.93;;;6.40;;
72584;SDS011;60618;40.084;32.908;2023-02-15T06:50:27;15.13;;;6.40;;
72584;SDS011;60618;40.084;32.908;2023-02-15T06:52:57;14.93;;;6.05;;
72584;SDS011;60618;40.084;32.908;2023-02-15T06:55:25;14.65;;;5.97;;
72584;SDS011;60618;40.084;32.908;2023-02-15T06:57:52;14.10;;;5.97;;
72584;SDS011;60618;40.084;32.908;2023-02-15T07:00:19;14.53;;;5.93;;
72584;SDS011;60618;40.084;32.908;2023-02-15T07:02:47;11.70;;;5.10;;
72584;SDS011;60618;40.084;32.908;2023-02-15T07:05:14;13.38;;;5.25;;
72584;SDS011;60618;40.084;32.908;2023-02-15T07:07:41;12.00;;;4.82;;
72584;SDS011;60618;40.084;32.908;2023-02-15T07:10:08;10.65;;;4.32;;
72584;SDS011;60618;40.084;32.908;2023-02-15T07:12:35;9.73;;;4.05;;
72584;SDS011;60618;40.084;32.908;2023-02-15T07:15:02;8.85;;;3.47;;
72584;SDS011;60618;40.084;32.908;2023-02-15T07:17:29;11.00;;;4.65;;
72584;SDS011;60618;40.084;32.908;2023-02-15T07:20:04;9.88;;;3.90;;
72584;SDS011;60618;40.084;32.908;2023-02-15T07:22:33;8.10;;;3.30;;
72584;SDS011;60618;40.084;32.908;2023-02-15T07:25:00;6.80;;;3.00;;
72584;SDS011;60618;40.084;32.908;2023-02-15T07:27:27;7.72;;;3.53;;
72584;SDS011;60618;40.084;32.908;2023-02-15T07:29:54;8.85;;;3.97;;
72584;SDS011;60618;40.084;32.908;2023-02-15T07:32:21;8.90;;;3.70;;
72584;SDS011;60618;40.084;32.908;2023-02-15T07:34:48;8.35;;;3.60;;
72584;SDS011;60618;40.084;32.908;2023-02-15T07:37:15;9.83;;;3.90;;
72584;SDS011;60618;40.084;32.908;2023-02-15T07:39:42;10.88;;;4.13;;
72584;SDS011;60618;40.084;32.908;2023-02-15T07:42:09;8.65;;;3.70;;
72584;SDS011;60618;40.084;32.908;2023-02-15T07:44:36;10.32;;;4.40;;
72584;SDS011;60618;40.084;32.908;2023-02-15T07:47:02;11.65;;;4.03;;
72584;SDS011;60618;40.084;32.908;2023-02-15T07:49:29;8.13;;;3.70;;
72584;SDS011;60618;40.084;32.908;2023-02-15T07:51:56;10.10;;;4.57;;
72584;SDS011;60618;40.084;32.908;2023-02-15T07:54:23;11.52;;;4.45;;
72584;SDS011;60618;40.084;32.908;2023-02-15T07:56:50;8.82;;;3.70;;
72584;SDS011;60618;40.084;32.908;2023-02-15T07:59:17;8.93;;;4.20;;
72584;SDS011;60618;40.084;32.908;2023-02-15T08:01:44;9.73;;;3.83;;
72584;SDS011;60618;40.084;32.908;2023-02-15T08:04:11;7.47;;;3.10;;
72584;SDS011;60618;40.084;32.908;2023-02-15T08:06:38;8.05;;;3.17;;
72584;SDS011;60618;40.084;32.908;2023-02-15T08:09:06;6.60;;;3.00;;
72584;SDS011;60618;40.084;32.908;2023-02-15T08:11:34;6.35;;;2.75;;
72584;SDS011;60618;40.084;32.908;2023-02-15T08:16:59;6.55;;;2.75;;
72584;SDS011;60618;40.084;32.908;2023-02-15T08:19:27;7.13;;;2.88;;
72584;SDS011;60618;40.084;32.908;2023-02-15T08:21:56;7.93;;;2.95;;
72584;SDS011;60618;40.084;32.908;2023-02-15T08:24:34;6.82;;;2.90;;
72584;SDS011;60618;40.084;32.908;2023-02-15T08:27:04;7.13;;;2.80;;
72584;SDS011;60618;40.084;32.908;2023-02-15T08:29:33;6.68;;;2.63;;
72584;SDS011;60618;40.084;32.908;2023-02-15T08:32:11;6.75;;;2.83;;
72584;SDS011;60618;40.084;32.908;2023-02-15T08:34:40;7.70;;;3.00;;
72584;SDS011;60618;40.084;32.908;2023-02-15T08:37:07;6.50;;;2.72;;
72584;SDS011;60618;40.084;32.908;2023-02-15T08:39:35;7.27;;;2.90;;
72584;SDS011;60618;40.084;32.908;2023-02-15T08:42:02;7.47;;;2.80;;
72584;SDS011;60618;40.084;32.908;2023-02-15T08:44:28;6.45;;;2.90;;
72584;SDS011;60618;40.084;32.908;2023-02-15T08:46:55;6.68;;;3.10;;
72584;SDS011;60618;40.084;32.908;2023-02-15T08:49:22;7.78;;;3.40;;
72584;SDS011;60618;40.084;32.908;2023-02-15T08:51:49;8.63;;;3.40;;
72584;SDS011;60618;40.084;32.908;2023-02-15T08:54:18;6.40;;;2.92;;
72584;SDS011;60618;40.084;32.908;2023-02-15T08:56:46;5.88;;;2.50;;
72584;SDS011;60618;40.084;32.908;2023-02-15T08:59:15;8.25;;;3.20;;
72584;SDS011;60618;40.084;32.908;2023-02-15T09:01:44;7.20;;;3.30;;
72584;SDS011;60618;40.084;32.908;2023-02-15T09:04:12;7.00;;;2.80;;
72584;SDS011;60618;40.084;32.908;2023-02-15T09:06:39;5.45;;;2.10;;
72584;SDS011;60618;40.084;32.908;2023-02-15T09:09:07;4.78;;;1.85;;
72584;SDS011;60618;40.084;32.908;2023-02-15T09:11:36;4.85;;;2.10;;
72584;SDS011;60618;40.084;32.908;2023-02-15T09:14:06;4.18;;;1.90;;
72584;SDS011;60618;40.084;32.908;2023-02-15T09:16:37;4.20;;;1.53;;
72584;SDS011;60618;40.084;32.908;2023-02-15T09:19:05;4.45;;;1.80;;
72584;SDS011;60618;40.084;32.908;2023-02-15T09:21:36;4.70;;;1.80;;
72584;SDS011;60618;40.084;32.908;2023-02-15T09:24:05;4.65;;;1.65;;
72584;SDS011;60618;40.084;32.908;2023-02-15T09:26:35;4.53;;;1.60;;
72584;SDS011;60618;40.084;32.908;2023-02-15T09:29:04;4.83;;;1.60;;
72584;SDS011;60618;40.084;32.908;2023-02-15T09:31:32;4.05;;;1.55;;
72584;SDS011;60618;40.084;32.908;2023-02-15T09:34:00;4.50;;;1.55;;
72584;SDS011;60618;40.084;32.908;2023-02-15T09:36:34;4.38;;;1.70;;
72584;SDS011;60618;40.084;32.908;2023-02-15T09:39:14;3.90;;;1.70;;
72584;SDS011;60618;40.084;32.908;2023-02-15T09:53:32;4.28;;;1.70;;
72584;SDS011;60618;40.084;32.908;2023-02-15T09:56:33;4.10;;;1.50;;
72584;SDS011;60618;40.084;32.908;2023-02-15T09:59:24;3.70;;;1.30;;
72584;SDS011;60618;40.084;32.908;2023-02-15T10:02:14;4.45;;;1.55;;
72584;SDS011;60618;40.084;32.908;2023-02-15T10:05:08;7.07;;;1.50;;
72584;SDS011;60618;40.084;32.908;2023-02-15T10:08:14;3.95;;;1.38;;
72584;SDS011;60618;40.084;32.908;2023-02-15T10:11:02;4.10;;;1.50;;
72584;SDS011;60618;40.084;32.908;2023-02-15T10:19:08;4.07;;;1.60;;
72584;SDS011;60618;40.084;32.908;2023-02-15T10:27:19;4.65;;;1.40;;
72584;SDS011;60618;40.084;32.908;2023-02-15T10:32:38;4.18;;;1.52;;
72584;SDS011;60618;40.084;32.908;2023-02-15T10:35:16;5.18;;;2.00;;
72584;SDS011;60618;40.084;32.908;2023-02-15T10:46:40;3.60;;;1.40;;
72584;SDS011;60618;40.084;32.908;2023-02-15T10:52:17;4.17;;;1.37;;
72584;SDS011;60618;40.084;32.908;2023-02-15T11:00:44;3.15;;;1.25;;
72584;SDS011;60618;40.084;32.908;2023-02-15T11:03:41;3.78;;;1.20;;
72584;SDS011;60618;40.084;32.908;2023-02-15T11:06:12;4.33;;;1.10;;
72584;SDS011;60618;40.084;32.908;2023-02-15T11:08:44;3.92;;;1.30;;
72584;SDS011;60618;40.084;32.908;2023-02-15T11:11:15;5.20;;;1.20;;
72584;SDS011;60618;40.084;32.908;2023-02-15T11:14:05;4.10;;;1.30;;
72584;SDS011;60618;40.084;32.908;2023-02-15T11:16:43;3.40;;;1.27;;
72584;SDS011;60618;40.084;32.908;2023-02-15T11:19:19;4.20;;;1.70;;
72584;SDS011;60618;40.084;32.908;2023-02-15T11:21:59;3.97;;;1.58;;
72584;SDS011;60618;40.084;32.908;2023-02-15T11:24:33;3.80;;;1.50;;
72584;SDS011;60618;40.084;32.908;2023-02-15T11:34:56;3.28;;;1.20;;
72584;SDS011;60618;40.084;32.908;2023-02-15T11:37:33;4.10;;;1.30;;
72584;SDS011;60618;40.084;32.908;2023-02-15T11:40:03;4.63;;;1.20;;
72584;SDS011;60618;40.084;32.908;2023-02-15T11:43:10;3.20;;;1.10;;
72584;SDS011;60618;40.084;32.908;2023-02-15T11:45:45;4.00;;;1.10;;
72584;SDS011;60618;40.084;32.908;2023-02-15T11:48:13;3.53;;;1.10;;
72584;SDS011;60618;40.084;32.908;2023-02-15T11:50:42;3.40;;;1.00;;
72584;SDS011;60618;40.084;32.908;2023-02-15T11:53:18;2.95;;;0.82;;
72584;SDS011;60618;40.084;32.908;2023-02-15T11:55:47;3.25;;;0.90;;
72584;SDS011;60618;40.084;32.908;2023-02-15T12:01:15;3.38;;;0.82;;
72584;SDS011;60618;40.084;32.908;2023-02-15T12:03:51;3.50;;;0.90;;
72584;SDS011;60618;40.084;32.908;2023-02-15T12:06:44;2.88;;;0.80;;
72584;SDS011;60618;40.084;32.908;2023-02-15T12:12:33;2.87;;;0.83;;
72584;SDS011;60618;40.084;32.908;2023-02-15T12:15:07;3.05;;;1.00;;
72584;SDS011;60618;40.084;32.908;2023-02-15T12:17:50;3.08;;;0.93;;
72584;SDS011;60618;40.084;32.908;2023-02-15T12:20:33;2.75;;;0.77;;
72584;SDS011;60618;40.084;32.908;2023-02-15T12:23:12;3.55;;;0.80;;
72584;SDS011;60618;40.084;32.908;2023-02-15T12:25:51;2.70;;;0.80;;
72584;SDS011;60618;40.084;32.908;2023-02-15T12:28:25;2.42;;;0.70;;
72584;SDS011;60618;40.084;32.908;2023-02-15T12:30:57;3.20;;;0.90;;
72584;SDS011;60618;40.084;32.908;2023-02-15T12:33:30;3.50;;;0.98;;
72584;SDS011;60618;40.084;32.908;2023-02-15T12:36:12;3.25;;;0.90;;
72584;SDS011;60618;40.084;32.908;2023-02-15T12:39:31;3.07;;;0.97;;
72584;SDS011;60618;40.084;32.908;2023-02-15T12:41:36;3.28;;;0.80;;
72584;SDS011;60618;40.084;32.908;2023-02-15T12:44:16;3.00;;;0.80;;
72584;SDS011;60618;40.084;32.908;2023-02-15T12:49:24;3.90;;;1.00;;
72584;SDS011;60618;40.084;32.908;2023-02-15T12:51:58;3.23;;;0.80;;
72584;SDS011;60618;40.084;32.908;2023-02-15T12:54:48;3.80;;;0.90;;
72584;SDS011;60618;40.084;32.908;2023-02-15T12:57:21;3.72;;;1.00;;
72584;SDS011;60618;40.084;32.908;2023-02-15T12:59:58;4.57;;;1.10;;
72584;SDS011;60618;40.084;32.908;2023-02-15T13:02:30;3.33;;;1.13;;
72584;SDS011;60618;40.084;32.908;2023-02-15T13:10:25;3.30;;;1.10;;
72584;SDS011;60618;40.084;32.908;2023-02-15T13:13:10;3.75;;;1.38;;
72584;SDS011;60618;40.084;32.908;2023-02-15T13:15:47;3.50;;;1.17;;
72584;SDS011;60618;40.084;32.908;2023-02-15T13:18:35;5.43;;;1.20;;
72584;SDS011;60618;40.084;32.908;2023-02-15T13:23:52;3.13;;;1.08;;
72584;SDS011;60618;40.084;32.908;2023-02-15T13:26:26;4.07;;;1.17;;
72584;SDS011;60618;40.084;32.908;2023-02-15T13:29:03;4.18;;;1.35;;
72584;SDS011;60618;40.084;32.908;2023-02-15T13:31:35;3.90;;;1.30;;
72584;SDS011;60618;40.084;32.908;2023-02-15T13:34:08;4.72;;;1.42;;
72584;SDS011;60618;40.084;32.908;2023-02-15T13:42:00;4.38;;;1.45;;
72584;SDS011;60618;40.084;32.908;2023-02-15T13:47:27;4.25;;;1.50;;
72584;SDS011;60618;40.084;32.908;2023-02-15T13:50:18;3.92;;;1.40;;
72584;SDS011;60618;40.084;32.908;2023-02-15T13:53:18;4.55;;;1.40;;
72584;SDS011;60618;40.084;32.908;2023-02-15T13:56:26;4.15;;;1.40;;
72584;SDS011;60618;40.084;32.908;2023-02-15T14:02:37;3.85;;;1.48;;
72584;SDS011;60618;40.084;32.908;2023-02-15T14:08:06;4.38;;;1.50;;
72584;SDS011;60618;40.084;32.908;2023-02-15T14:10:59;3.70;;;1.50;;
72584;SDS011;60618;40.084;32.908;2023-02-15T14:13:56;5.20;;;1.70;;
72584;SDS011;60618;40.084;32.908;2023-02-15T14:19:09;4.22;;;1.60;;
72584;SDS011;60618;40.084;32.908;2023-02-15T14:24:40;4.75;;;1.80;;
72584;SDS011;60618;40.084;32.908;2023-02-15T14:29:57;5.38;;;2.35;;
72584;SDS011;60618;40.084;32.908;2023-02-15T14:35:48;3.75;;;1.20;;
72584;SDS011;60618;40.084;32.908;2023-02-15T14:49:10;3.38;;;1.30;;
72584;SDS011;60618;40.084;32.908;2023-02-15T14:54:08;3.80;;;1.30;;
72584;SDS011;60618;40.084;32.908;2023-02-15T14:56:36;3.78;;;1.40;;
72584;SDS011;60618;40.084;32.908;2023-02-15T14:59:22;3.47;;;1.30;;
72584;SDS011;60618;40.084;32.908;2023-02-15T15:04:42;3.67;;;1.30;;
72584;SDS011;60618;40.084;32.908;2023-02-15T15:07:22;3.87;;;1.50;;
72584;SDS011;60618;40.084;32.908;2023-02-15T15:09:59;4.00;;;1.58;;
72584;SDS011;60618;40.084;32.908;2023-02-15T15:15:00;5.43;;;2.25;;
72584;SDS011;60618;40.084;32.908;2023-02-15T15:20:05;5.95;;;2.47;;
72584;SDS011;60618;40.084;32.908;2023-02-15T15:22:38;6.70;;;2.40;;
72584;SDS011;60618;40.084;32.908;2023-02-15T15:25:12;6.00;;;2.33;;
72584;SDS011;60618;40.084;32.908;2023-02-15T15:33:59;6.82;;;2.00;;
72584;SDS011;60618;40.084;32.908;2023-02-15T15:37:02;4.57;;;1.48;;
72584;SDS011;60618;40.084;32.908;2023-02-15T15:39:56;5.43;;;1.65;;
72584;SDS011;60618;40.084;32.908;2023-02-15T15:59:28;5.32;;;1.50;;
72584;SDS011;60618;40.084;32.908;2023-02-15T16:02:13;4.20;;;1.40;;
72584;SDS011;60618;40.084;32.908;2023-02-15T16:04:41;3.60;;;1.10;;
72584;SDS011;60618;40.084;32.908;2023-02-15T16:09:58;4.55;;;1.50;;
72584;SDS011;60618;40.084;32.908;2023-02-15T16:12:27;4.57;;;1.27;;
72584;SDS011;60618;40.084;32.908;2023-02-15T16:14:57;3.47;;;1.00;;
72584;SDS011;60618;40.084;32.908;2023-02-15T16:17:28;3.20;;;0.90;;
72584;SDS011;60618;40.084;32.908;2023-02-15T16:20:04;3.95;;;0.95;;
72584;SDS011;60618;40.084;32.908;2023-02-15T16:22:39;3.38;;;0.93;;
72584;SDS011;60618;40.084;32.908;2023-02-15T16:25:30;3.50;;;0.80;;
72584;SDS011;60618;40.084;32.908;2023-02-15T16:28:11;3.65;;;1.00;;
72584;SDS011;60618;40.084;32.908;2023-02-15T16:30:39;2.72;;;0.88;;
72584;SDS011;60618;40.084;32.908;2023-02-15T16:33:11;3.20;;;1.00;;
72584;SDS011;60618;40.084;32.908;2023-02-15T16:35:53;3.30;;;0.93;;
72584;SDS011;60618;40.084;32.908;2023-02-15T16:43:57;3.42;;;1.10;;
72584;SDS011;60618;40.084;32.908;2023-02-15T16:46:27;3.50;;;1.20;;
72584;SDS011;60618;40.084;32.908;2023-02-15T16:49:02;3.72;;;1.10;;
72584;SDS011;60618;40.084;32.908;2023-02-15T16:51:34;3.67;;;1.20;;
72584;SDS011;60618;40.084;32.908;2023-02-15T16:54:08;4.55;;;1.30;;
72584;SDS011;60618;40.084;32.908;2023-02-15T16:56:47;6.47;;;2.00;;
72584;SDS011;60618;40.084;32.908;2023-02-15T16:59:21;9.15;;;2.50;;
72584;SDS011;60618;40.084;32.908;2023-02-15T17:02:21;5.25;;;1.40;;
72584;SDS011;60618;40.084;32.908;2023-02-15T17:07:41;3.63;;;1.20;;
72584;SDS011;60618;40.084;32.908;2023-02-15T17:13:31;4.88;;;1.23;;
72584;SDS011;60618;40.084;32.908;2023-02-15T17:18:29;4.75;;;1.20;;
72584;SDS011;60618;40.084;32.908;2023-02-15T17:21:12;4.03;;;1.50;;
72584;SDS011;60618;40.084;32.908;2023-02-15T17:23:47;4.95;;;1.38;;
72584;SDS011;60618;40.084;32.908;2023-02-15T17:29:31;4.63;;;1.02;;
72584;SDS011;60618;40.084;32.908;2023-02-15T17:32:05;3.63;;;1.15;;
72584;SDS011;60618;40.084;32.908;2023-02-15T17:34:50;3.45;;;1.08;;
72584;SDS011;60618;40.084;32.908;2023-02-15T17:37:41;3.08;;;1.05;;
72584;SDS011;60618;40.084;32.908;2023-02-15T17:40:24;3.67;;;1.23;;
72584;SDS011;60618;40.084;32.908;2023-02-15T17:42:56;5.32;;;1.52;;
72584;SDS011;60618;40.084;32.908;2023-02-15T17:45:43;3.55;;;1.20;;
72584;SDS011;60618;40.084;32.908;2023-02-15T17:48:27;4.10;;;1.40;;
72584;SDS011;60618;40.084;32.908;2023-02-15T17:51:02;4.38;;;1.30;;
72584;SDS011;60618;40.084;32.908;2023-02-15T17:53:32;4.00;;;1.30;;
72584;SDS011;60618;40.084;32.908;2023-02-15T17:56:00;4.00;;;1.30;;
72584;SDS011;60618;40.084;32.908;2023-02-15T17:58:27;3.80;;;1.30;;
72584;SDS011;60618;40.084;32.908;2023-02-15T18:00:54;4.00;;;1.25;;
72584;SDS011;60618;40.084;32.908;2023-02-15T18:03:28;3.75;;;1.25;;
72584;SDS011;60618;40.084;32.908;2023-02-15T18:06:17;3.67;;;1.15;;